Time;durP1;ratioP1;P1;durP2;ratioP2;P2;SDS_P1;SDS_P2;PMS_P1;PMS_P2;Temp;Humidity;BMP_temperature;BMP_pressure;BME280_temperature;BME280_humidity;BME280_pressure;Samples;Min_cycle;Max_cycle;Signal;HPM_P1;HPM_P2
2023/08/07 00:00:09;;;;;;;2.70;2.50;;;15.70;99.90;;;;;;5000928;28;20500;-63
2023/08/07 00:02:37;;;;;;;5.27;3.13;;;15.60;99.90;;;;;;4997472;28;20655;-64
2023/08/07 00:05:06;;;;;;;3.00;2.70;;;15.60;99.90;;;;;;5004141;28;20567;-64
2023/08/07 00:07:34;;;;;;;2.93;2.63;;;15.60;99.90;;;;;;5003412;28;20468;-64
2023/08/07 00:10:03;;;;;;;3.10;2.90;;;15.50;99.90;;;;;;4992787;28;20523;-64
2023/08/07 00:12:31;;;;;;;2.83;2.63;;;15.60;99.90;;;;;;4995968;28;20493;-64
2023/08/07 00:15:01;;;;;;;2.97;2.77;;;15.60;99.90;;;;;;4985471;28;20475;-63
2023/08/07 00:17:29;;;;;;;4.10;2.97;;;15.50;99.90;;;;;;4988464;28;20492;-63
2023/08/07 00:19:58;;;;;;;2.47;2.27;;;15.50;99.90;;;;;;4987774;28;20479;-64
2023/08/07 00:22:26;;;;;;;3.10;2.80;;;15.50;99.90;;;;;;4993457;28;20490;-64
2023/08/07 00:24:54;;;;;;;3.20;2.90;;;15.50;99.90;;;;;;4992331;28;20578;-64
2023/08/07 00:27:22;;;;;;;3.40;2.77;;;15.50;99.90;;;;;;4992383;28;20472;-64
2023/08/07 00:29:50;;;;;;;3.20;2.90;;;15.50;99.90;;;;;;4989045;28;20472;-64
2023/08/07 00:32:19;;;;;;;3.67;2.90;;;15.40;99.90;;;;;;4993563;28;20498;-64
2023/08/07 00:34:47;;;;;;;2.73;2.53;;;15.40;99.90;;;;;;4990870;28;20499;-63
2023/08/07 00:37:15;;;;;;;3.03;2.27;;;15.50;99.90;;;;;;4992672;28;21045;-64
2023/08/07 00:39:44;;;;;;;2.60;2.40;;;15.40;99.90;;;;;;4991537;28;20472;-63
2023/08/07 00:42:12;;;;;;;5.13;2.57;;;15.40;99.90;;;;;;4987756;28;20591;-63
2023/08/07 00:44:40;;;;;;;2.40;2.30;;;15.30;99.90;;;;;;4994259;28;20538;-63
2023/08/07 00:47:08;;;;;;;3.83;2.80;;;15.30;99.90;;;;;;5001923;28;21014;-64
2023/08/07 00:49:38;;;;;;;4.10;2.53;;;15.40;99.90;;;;;;4989023;28;20562;-64
2023/08/07 00:52:06;;;;;;;2.50;2.30;;;15.30;99.90;;;;;;4995255;28;20492;-64
2023/08/07 00:54:34;;;;;;;2.83;2.63;;;15.30;99.90;;;;;;4995167;28;20500;-64
2023/08/07 00:57:11;;;;;;;2.37;2.17;;;15.30;99.90;;;;;;4991296;28;20472;-63
2023/08/07 00:59:40;;;;;;;2.63;2.40;;;15.30;99.90;;;;;;4995501;28;20554;-63
2023/08/07 01:02:09;;;;;;;2.47;2.27;;;15.30;99.90;;;;;;4996273;28;20614;-64
2023/08/07 01:04:38;;;;;;;3.40;2.50;;;15.30;99.90;;;;;;4996849;28;20767;-62
2023/08/07 01:07:07;;;;;;;3.10;2.43;;;15.30;99.90;;;;;;4990358;28;20564;-63
2023/08/07 01:09:35;;;;;;;2.50;2.30;;;15.20;99.90;;;;;;4993479;28;20938;-63
2023/08/07 01:12:11;;;;;;;2.77;2.40;;;15.20;99.90;;;;;;4992905;28;20557;-64
2023/08/07 01:14:50;;;;;;;2.37;2.17;;;15.20;99.90;;;;;;5010432;28;20522;-64
2023/08/07 01:17:21;;;;;;;2.33;2.20;;;15.20;99.90;;;;;;5020326;28;20547;-64
2023/08/07 01:19:51;;;;;;;3.17;2.50;;;15.20;99.90;;;;;;5007220;28;20991;-64
2023/08/07 01:22:22;;;;;;;3.00;2.37;;;15.20;99.90;;;;;;5001521;28;20503;-63
2023/08/07 01:24:52;;;;;;;2.87;2.10;;;15.20;99.90;;;;;;4999864;28;20577;-63
2023/08/07 01:27:32;;;;;;;2.50;2.30;;;15.10;99.90;;;;;;4991056;28;20472;-63
2023/08/07 01:30:08;;;;;;;2.90;2.50;;;15.10;99.90;;;;;;4990610;28;20976;-63
2023/08/07 01:32:44;;;;;;;3.77;2.50;;;15.10;99.90;;;;;;5000728;28;20491;-64
2023/08/07 01:35:15;;;;;;;2.70;2.50;;;15.10;99.90;;;;;;4993732;28;20475;-63
2023/08/07 01:37:46;;;;;;;4.83;2.57;;;15.10;99.90;;;;;;5006247;28;20570;-63
2023/08/07 01:40:15;;;;;;;3.20;2.43;;;15.00;99.90;;;;;;5002119;28;20559;-64
2023/08/07 01:42:45;;;;;;;2.60;2.40;;;15.00;99.90;;;;;;5004461;28;20853;-64
2023/08/07 01:45:13;;;;;;;3.00;2.73;;;15.00;99.90;;;;;;5009237;28;20469;-63
2023/08/07 01:47:41;;;;;;;3.00;2.70;;;15.00;99.90;;;;;;5004779;28;20476;-64
2023/08/07 01:50:09;;;;;;;3.17;2.70;;;15.00;99.90;;;;;;5001818;28;20611;-64
2023/08/07 01:52:37;;;;;;;2.60;2.40;;;14.90;99.90;;;;;;5006777;28;20476;-63
2023/08/07 01:55:07;;;;;;;5.60;2.80;;;14.80;99.90;;;;;;5008918;28;20475;-63
2023/08/07 01:57:35;;;;;;;3.50;2.73;;;14.80;99.90;;;;;;5008517;28;20500;-62
2023/08/07 02:00:04;;;;;;;2.50;2.30;;;14.80;99.90;;;;;;5009403;28;20469;-64
2023/08/07 02:02:32;;;;;;;3.63;2.33;;;14.80;99.90;;;;;;4999024;28;20488;-64
2023/08/07 02:05:00;;;;;;;2.83;2.63;;;14.80;99.90;;;;;;5006198;28;20478;-63
2023/08/07 02:07:28;;;;;;;3.23;2.93;;;14.80;99.90;;;;;;5010130;28;20559;-63
2023/08/07 02:09:56;;;;;;;3.80;2.83;;;14.80;99.90;;;;;;5001798;28;20464;-62
2023/08/07 02:12:26;;;;;;;3.27;2.90;;;14.80;99.90;;;;;;4996571;28;21096;-64
2023/08/07 02:14:54;;;;;;;2.53;2.30;;;14.80;99.90;;;;;;4998189;28;20488;-64
2023/08/07 02:17:22;;;;;;;4.50;2.30;;;14.80;99.90;;;;;;5002456;28;20490;-63
2023/08/07 02:19:50;;;;;;;2.67;2.37;;;14.80;99.90;;;;;;4997464;28;20500;-64
2023/08/07 02:22:18;;;;;;;3.47;2.63;;;14.70;99.90;;;;;;4989721;28;20488;-64
2023/08/07 02:24:47;;;;;;;3.90;2.30;;;14.80;99.90;;;;;;4997713;28;20475;-63
2023/08/07 02:27:15;;;;;;;3.17;2.83;;;14.70;99.90;;;;;;4998472;28;20559;-63
2023/08/07 02:29:45;;;;;;;2.93;2.73;;;14.70;99.90;;;;;;5003020;28;20940;-64
2023/08/07 02:32:13;;;;;;;4.27;2.53;;;14.80;99.90;;;;;;4995033;28;20700;-63
2023/08/07 02:34:41;;;;;;;3.03;2.60;;;14.80;99.90;;;;;;4996260;28;20477;-63
2023/08/07 02:37:09;;;;;;;7.03;3.10;;;14.80;99.90;;;;;;4993553;28;22138;-63
2023/08/07 02:39:37;;;;;;;4.17;2.60;;;14.80;99.90;;;;;;4998310;28;20532;-63
2023/08/07 02:42:05;;;;;;;2.50;2.40;;;14.80;99.90;;;;;;4980942;28;20560;-64
2023/08/07 02:44:33;;;;;;;3.00;2.40;;;14.80;99.90;;;;;;4997443;28;20480;-63
2023/08/07 02:47:03;;;;;;;3.50;2.50;;;14.80;99.90;;;;;;4990153;28;20597;-64
2023/08/07 02:49:31;;;;;;;4.30;2.00;;;14.80;99.90;;;;;;4992872;28;20467;-63
2023/08/07 02:51:59;;;;;;;6.60;2.30;;;14.80;99.90;;;;;;4990754;28;20484;-63
2023/08/07 02:54:27;;;;;;;2.73;2.33;;;14.70;99.90;;;;;;4993718;28;20504;-63
2023/08/07 02:56:55;;;;;;;2.37;2.17;;;14.80;99.90;;;;;;4996811;28;20481;-63
2023/08/07 02:59:23;;;;;;;2.50;2.30;;;14.70;99.90;;;;;;4998477;28;20502;-64
2023/08/07 03:01:51;;;;;;;7.37;2.27;;;14.80;99.90;;;;;;4990379;28;20615;-63
2023/08/07 03:04:20;;;;;;;2.50;2.30;;;14.80;99.90;;;;;;4999887;28;20564;-63
2023/08/07 03:06:48;;;;;;;2.70;2.50;;;14.80;99.90;;;;;;4991313;28;20474;-63
2023/08/07 03:09:16;;;;;;;6.13;2.40;;;14.80;99.90;;;;;;4994996;28;20494;-64
2023/08/07 03:11:44;;;;;;;2.80;1.90;;;14.80;99.90;;;;;;4995527;28;21380;-63
2023/08/07 03:14:12;;;;;;;2.63;2.20;;;14.80;99.90;;;;;;4992667;28;21036;-63
2023/08/07 03:16:40;;;;;;;3.23;2.30;;;14.80;99.90;;;;;;4995250;28;20581;-64
2023/08/07 03:19:08;;;;;;;2.13;2.03;;;14.80;99.90;;;;;;5003747;28;20524;-64
2023/08/07 03:21:38;;;;;;;2.50;2.30;;;14.80;99.90;;;;;;4991501;28;20510;-63
2023/08/07 03:24:06;;;;;;;2.23;2.13;;;14.90;99.90;;;;;;4989504;28;20566;-64
2023/08/07 03:26:37;;;;;;;4.07;1.90;;;14.90;99.90;;;;;;4992903;28;20488;-64
2023/08/07 03:29:05;;;;;;;2.40;2.20;;;14.90;99.90;;;;;;4998510;28;20464;-64
2023/08/07 03:31:33;;;;;;;2.40;2.17;;;14.90;99.90;;;;;;4988358;28;20550;-64
2023/08/07 03:34:01;;;;;;;2.80;2.10;;;14.90;99.90;;;;;;4989260;28;20485;-63
2023/08/07 03:36:29;;;;;;;4.07;2.37;;;14.90;99.90;;;;;;4991526;28;20506;-64
2023/08/07 03:38:58;;;;;;;2.67;2.30;;;14.90;99.90;;;;;;4996187;28;20932;-64
2023/08/07 03:41:26;;;;;;;3.10;2.00;;;14.90;99.90;;;;;;5001374;28;20543;-63
2023/08/07 03:43:54;;;;;;;2.23;1.93;;;14.90;99.90;;;;;;5024651;28;20488;-63
2023/08/07 03:46:22;;;;;;;2.40;2.20;;;15.00;99.90;;;;;;5015023;28;20475;-64
2023/08/07 03:48:50;;;;;;;3.47;2.10;;;15.00;99.90;;;;;;5000789;28;20559;-63
2023/08/07 03:51:18;;;;;;;2.90;2.30;;;15.10;99.90;;;;;;5001075;28;20637;-63
2023/08/07 03:53:46;;;;;;;3.57;2.50;;;15.00;99.90;;;;;;5002101;28;20940;-66
2023/08/07 03:56:15;;;;;;;4.03;2.40;;;15.10;99.90;;;;;;5003731;28;20927;-63
2023/08/07 03:58:43;;;;;;;3.37;2.50;;;15.10;99.90;;;;;;5004345;28;21029;-64
2023/08/07 04:01:11;;;;;;;3.40;2.80;;;15.00;99.90;;;;;;5002930;28;20496;-63
2023/08/07 04:03:39;;;;;;;2.70;2.50;;;15.00;99.90;;;;;;4995083;28;20484;-62
2023/08/07 04:06:07;;;;;;;3.03;2.57;;;15.00;99.90;;;;;;4997253;28;20474;-64
2023/08/07 04:08:35;;;;;;;4.00;2.50;;;15.00;99.90;;;;;;4996487;28;20531;-64
2023/08/07 04:11:04;;;;;;;3.90;2.50;;;15.00;99.90;;;;;;4995353;28;20576;-62
2023/08/07 04:13:34;;;;;;;3.17;2.13;;;15.00;99.90;;;;;;4992202;28;20731;-63
2023/08/07 04:16:04;;;;;;;2.73;2.53;;;15.00;99.90;;;;;;5001028;28;20844;-64
2023/08/07 04:18:32;;;;;;;3.10;2.30;;;15.00;99.90;;;;;;4993950;28;20522;-64
2023/08/07 04:21:01;;;;;;;3.33;2.80;;;15.00;99.90;;;;;;4992183;28;20507;-64
2023/08/07 04:23:29;;;;;;;3.40;2.47;;;15.00;99.90;;;;;;4987230;28;20491;-63
2023/08/07 04:25:57;;;;;;;3.20;2.60;;;15.00;99.90;;;;;;4992641;28;20472;-64
2023/08/07 04:28:25;;;;;;;6.20;3.70;;;15.00;99.90;;;;;;4995601;28;20472;-64
2023/08/07 04:30:54;;;;;;;3.10;2.80;;;15.00;99.90;;;;;;4989524;28;20974;-64
2023/08/07 04:33:22;;;;;;;3.90;2.67;;;15.10;99.90;;;;;;4993023;28;20851;-64
2023/08/07 04:35:50;;;;;;;2.60;2.10;;;15.00;99.90;;;;;;4989718;28;20480;-63
2023/08/07 04:38:18;;;;;;;4.17;2.50;;;15.00;99.90;;;;;;4987337;28;20476;-63
2023/08/07 04:40:47;;;;;;;4.73;3.00;;;15.10;99.90;;;;;;4988622;28;21389;-64
2023/08/07 04:43:15;;;;;;;4.63;3.23;;;15.10;99.90;;;;;;4991152;28;20574;-64
2023/08/07 04:45:44;;;;;;;4.00;3.00;;;15.00;99.90;;;;;;4997580;28;20483;-64
2023/08/07 04:48:15;;;;;;;3.70;3.40;;;15.00;99.90;;;;;;4997656;28;20468;-64
2023/08/07 04:50:43;;;;;;;3.23;2.70;;;15.10;99.90;;;;;;4998796;28;20865;-63
2023/08/07 04:53:11;;;;;;;4.27;2.70;;;15.10;99.90;;;;;;4988515;28;20528;-63
2023/08/07 04:55:40;;;;;;;3.13;2.67;;;15.10;99.90;;;;;;4994584;28;20501;-63
2023/08/07 04:58:08;;;;;;;2.70;2.50;;;15.20;99.90;;;;;;4992603;28;20597;-64
2023/08/07 05:00:37;;;;;;;4.37;2.60;;;15.20;99.90;;;;;;4993202;28;20554;-63
2023/08/07 05:03:05;;;;;;;4.07;2.63;;;15.20;99.90;;;;;;4989128;28;20561;-64
2023/08/07 05:05:35;;;;;;;5.80;2.97;;;15.20;99.90;;;;;;4990934;28;20473;-63
2023/08/07 05:08:03;;;;;;;6.57;2.60;;;15.20;99.90;;;;;;4992615;28;20572;-66
2023/08/07 05:10:31;;;;;;;3.70;3.10;;;15.20;99.90;;;;;;4995938;28;20573;-63
2023/08/07 05:12:59;;;;;;;6.57;2.90;;;15.30;99.90;;;;;;4984938;28;20587;-64
2023/08/07 05:15:28;;;;;;;3.30;2.50;;;15.30;99.90;;;;;;4989859;28;20472;-63
2023/08/07 05:17:56;;;;;;;4.50;2.70;;;15.30;99.90;;;;;;4990853;28;20500;-64
2023/08/07 05:20:24;;;;;;;5.10;3.03;;;15.40;99.90;;;;;;4993323;28;20515;-64
2023/08/07 05:22:53;;;;;;;3.90;2.67;;;15.30;99.90;;;;;;4992818;28;22007;-64
2023/08/07 05:25:22;;;;;;;4.03;2.97;;;15.30;99.90;;;;;;4992680;28;20468;-64
2023/08/07 05:27:50;;;;;;;4.07;2.40;;;15.30;99.90;;;;;;4990715;28;20496;-64
2023/08/07 05:30:18;;;;;;;5.50;2.90;;;15.30;99.90;;;;;;4988939;28;20587;-64
2023/08/07 05:32:46;;;;;;;7.47;3.00;;;15.40;99.90;;;;;;4988804;28;21017;-64
2023/08/07 05:35:14;;;;;;;3.80;2.50;;;15.40;99.90;;;;;;4991798;28;20527;-63
2023/08/07 05:37:42;;;;;;;5.27;2.90;;;15.50;99.90;;;;;;4985078;28;20488;-63
2023/08/07 05:40:12;;;;;;;5.07;3.00;;;15.50;99.90;;;;;;4995429;28;20690;-64
2023/08/07 05:42:41;;;;;;;5.17;2.97;;;15.50;99.90;;;;;;4996576;28;20590;-66
2023/08/07 05:45:11;;;;;;;4.07;3.00;;;15.60;99.90;;;;;;4995626;28;20534;-63
2023/08/07 05:47:38;;;;;;;3.87;2.50;;;15.60;99.90;;;;;;4996908;28;25930;-64
2023/08/07 05:50:09;;;;;;;4.00;2.80;;;15.70;99.90;;;;;;4998766;28;20989;-63
2023/08/07 05:52:37;;;;;;;5.97;2.87;;;15.80;99.90;;;;;;4997646;28;20528;-63
2023/08/07 05:55:07;;;;;;;6.37;3.37;;;15.80;99.90;;;;;;4998027;28;21128;-64
2023/08/07 05:57:37;;;;;;;6.80;3.23;;;15.90;99.90;;;;;;5001139;28;20479;-64
2023/08/07 06:00:07;;;;;;;11.97;3.90;;;15.90;99.90;;;;;;4999409;28;20492;-62
2023/08/07 06:02:35;;;;;;;4.13;2.57;;;16.00;99.90;;;;;;4987671;28;20502;-63
2023/08/07 06:05:03;;;;;;;5.73;2.97;;;16.10;99.90;;;;;;5001518;28;20472;-63
2023/08/07 06:07:31;;;;;;;6.60;2.67;;;16.00;99.90;;;;;;5001671;28;20558;-64
2023/08/07 06:09:59;;;;;;;4.07;3.00;;;16.10;99.90;;;;;;4995957;28;20500;-62
2023/08/07 06:12:27;;;;;;;6.23;3.00;;;16.10;99.90;;;;;;5013649;28;20938;-63
2023/08/07 06:14:57;;;;;;;5.57;3.10;;;16.10;99.90;;;;;;5000487;28;20510;-63
2023/08/07 06:17:25;;;;;;;5.07;2.90;;;16.10;99.90;;;;;;4997627;28;20512;-64
2023/08/07 06:19:53;;;;;;;6.13;3.03;;;16.10;99.90;;;;;;4995082;28;21266;-63
2023/08/07 06:22:21;;;;;;;6.90;2.80;;;16.20;99.90;;;;;;4991914;28;20539;-64
2023/08/07 06:24:49;;;;;;;6.80;3.03;;;16.20;99.90;;;;;;4990402;28;20642;-63
2023/08/07 06:27:17;;;;;;;5.00;2.87;;;16.10;99.90;;;;;;4990012;28;20479;-64
2023/08/07 06:29:45;;;;;;;4.73;2.80;;;16.10;99.90;;;;;;4999019;28;20555;-64
2023/08/07 06:32:15;;;;;;;6.00;3.10;;;16.10;99.90;;;;;;4994365;28;20549;-63
2023/08/07 06:34:43;;;;;;;8.30;3.50;;;16.20;99.90;;;;;;4992424;28;20476;-64
2023/08/07 06:37:11;;;;;;;4.03;3.10;;;16.30;99.90;;;;;;4993234;28;21451;-63
2023/08/07 06:39:39;;;;;;;7.23;3.03;;;16.30;99.90;;;;;;4990490;28;20499;-63
2023/08/07 06:42:07;;;;;;;7.83;3.50;;;16.40;99.90;;;;;;4995056;28;20993;-63
2023/08/07 06:44:35;;;;;;;5.60;3.00;;;16.40;99.90;;;;;;4999836;28;20610;-62
2023/08/07 06:47:03;;;;;;;8.10;3.57;;;16.40;99.90;;;;;;4994012;28;21199;-63
2023/08/07 06:49:33;;;;;;;7.50;3.90;;;16.40;99.90;;;;;;4998992;28;20487;-64
2023/08/07 06:52:01;;;;;;;6.67;3.40;;;16.40;99.90;;;;;;4992922;28;20543;-63
2023/08/07 06:54:29;;;;;;;6.20;3.73;;;16.30;99.90;;;;;;4987645;28;20468;-62
2023/08/07 06:56:57;;;;;;;6.37;3.03;;;16.30;99.90;;;;;;4989431;28;20500;-63
2023/08/07 06:59:25;;;;;;;5.83;4.17;;;16.30;99.90;;;;;;4987957;28;20477;-64
2023/08/07 07:01:53;;;;;;;5.40;3.70;;;16.30;99.90;;;;;;4987080;28;21543;-63
2023/08/07 07:04:21;;;;;;;7.90;3.60;;;16.40;99.90;;;;;;4990522;28;20849;-63
2023/08/07 07:06:51;;;;;;;9.33;3.90;;;16.40;99.90;;;;;;4982733;28;20769;-64
2023/08/07 07:09:18;;;;;;;8.17;3.50;;;16.40;99.90;;;;;;4986899;28;20690;-64
2023/08/07 07:11:46;;;;;;;8.23;3.77;;;16.40;99.90;;;;;;4993937;28;20563;-62
2023/08/07 07:14:14;;;;;;;7.33;3.60;;;16.40;99.90;;;;;;4987409;28;20504;-64
2023/08/07 07:16:43;;;;;;;10.20;3.97;;;16.40;99.90;;;;;;4988610;28;20617;-64
2023/08/07 07:19:11;;;;;;;5.70;3.33;;;16.40;99.90;;;;;;4994658;28;20499;-62
2023/08/07 07:21:39;;;;;;;5.90;3.33;;;16.40;99.90;;;;;;4986537;28;20492;-63
2023/08/07 07:24:08;;;;;;;7.07;3.70;;;16.60;99.90;;;;;;4988051;28;20563;-64
2023/08/07 07:26:36;;;;;;;9.87;3.90;;;16.70;99.90;;;;;;4984673;28;20472;-63
2023/08/07 07:29:04;;;;;;;9.23;4.10;;;16.70;99.90;;;;;;4991098;28;20982;-63
2023/08/07 07:31:32;;;;;;;9.97;3.47;;;16.70;99.90;;;;;;4988824;28;20791;-64
2023/08/07 07:34:01;;;;;;;6.60;3.37;;;16.80;99.90;;;;;;4988430;28;20476;-62
2023/08/07 07:36:29;;;;;;;6.50;3.13;;;16.60;99.90;;;;;;4992625;28;20717;-62
2023/08/07 07:38:57;;;;;;;4.80;3.87;;;16.50;99.90;;;;;;4986073;28;20622;-63
2023/08/07 07:41:27;;;;;;;7.47;3.73;;;16.40;99.90;;;;;;4993150;28;20587;-62
2023/08/07 07:43:56;;;;;;;7.80;3.90;;;16.30;99.90;;;;;;4995825;28;21092;-63
2023/08/07 07:46:24;;;;;;;7.70;3.73;;;16.30;99.90;;;;;;4998257;28;20468;-65
2023/08/07 07:48:52;;;;;;;7.77;3.60;;;16.30;99.90;;;;;;4994830;28;20477;-64
2023/08/07 07:51:20;;;;;;;10.83;3.43;;;16.40;99.90;;;;;;5002022;28;22260;-64
2023/08/07 07:53:48;;;;;;;6.70;4.10;;;16.60;99.90;;;;;;4987501;28;20494;-64
2023/08/07 07:56:38;;;;;;;10.10;3.73;;;16.70;99.90;;;;;;4993965;28;20555;-63
2023/08/07 07:59:06;;;;;;;6.40;3.73;;;16.90;99.90;;;;;;4995355;28;20562;-64
2023/08/07 08:01:36;;;;;;;6.83;3.60;;;16.90;99.90;;;;;;4996664;28;20492;-64
2023/08/07 08:04:05;;;;;;;5.73;3.50;;;17.10;99.90;;;;;;4992286;28;20476;-64
2023/08/07 08:06:33;;;;;;;7.80;3.37;;;17.10;99.90;;;;;;4995876;28;20463;-64
2023/08/07 08:09:04;;;;;;;7.53;3.30;;;17.10;99.90;;;;;;4996510;28;20551;-64
2023/08/07 08:11:32;;;;;;;8.33;3.60;;;17.10;99.90;;;;;;4992340;28;21016;-64
2023/08/07 08:14:02;;;;;;;8.20;3.30;;;17.00;99.90;;;;;;4990373;28;20480;-63
2023/08/07 08:16:30;;;;;;;8.40;3.60;;;17.00;99.90;;;;;;4992961;28;20484;-63
2023/08/07 08:18:58;;;;;;;8.40;3.53;;;16.90;99.90;;;;;;4991133;28;20472;-63
2023/08/07 08:21:26;;;;;;;12.57;4.00;;;16.90;99.90;;;;;;4999067;28;20536;-64
2023/08/07 08:23:54;;;;;;;5.60;3.23;;;16.80;99.90;;;;;;5003308;28;21063;-64
2023/08/07 08:26:22;;;;;;;6.00;3.10;;;16.70;99.90;;;;;;5003213;28;20499;-63
2023/08/07 08:28:50;;;;;;;6.23;3.50;;;16.70;99.90;;;;;;5004398;28;20564;-64
2023/08/07 08:31:21;;;;;;;6.77;3.70;;;16.70;99.90;;;;;;5004446;28;21099;-64
2023/08/07 08:33:49;;;;;;;5.30;3.67;;;16.60;99.90;;;;;;5004613;28;20484;-64
2023/08/07 08:36:17;;;;;;;9.50;3.63;;;16.50;99.90;;;;;;5006562;28;20472;-64
2023/08/07 08:38:48;;;;;;;8.73;4.17;;;16.40;99.90;;;;;;5003299;28;20468;-65
2023/08/07 08:41:17;;;;;;;7.13;4.00;;;16.40;99.90;;;;;;5006419;28;20492;-64
2023/08/07 08:43:47;;;;;;;8.93;4.70;;;16.50;99.90;;;;;;5025327;28;20472;-64
2023/08/07 08:46:17;;;;;;;6.53;3.90;;;16.50;99.90;;;;;;5023912;28;20476;-63
2023/08/07 08:48:51;;;;;;;7.53;3.60;;;16.50;99.90;;;;;;5021614;28;20474;-64
2023/08/07 08:51:21;;;;;;;7.70;3.97;;;16.50;99.90;;;;;;5004434;28;20495;-64
2023/08/07 08:53:51;;;;;;;13.40;4.20;;;16.50;99.90;;;;;;5004830;28;20488;-64
2023/08/07 08:56:19;;;;;;;8.43;3.40;;;16.40;99.90;;;;;;5005690;28;20468;-64
2023/08/07 08:58:48;;;;;;;7.90;3.40;;;16.40;99.90;;;;;;5004423;28;20526;-64
2023/08/07 09:01:17;;;;;;;10.83;3.50;;;16.40;99.90;;;;;;5003802;28;20496;-64
2023/08/07 09:03:48;;;;;;;7.23;3.70;;;16.40;99.90;;;;;;5004627;28;20484;-64
2023/08/07 09:06:16;;;;;;;7.53;3.67;;;16.50;99.90;;;;;;5005254;28;20559;-64
2023/08/07 09:08:45;;;;;;;11.43;3.60;;;16.50;99.90;;;;;;5004952;28;20550;-65
2023/08/07 09:11:14;;;;;;;10.40;3.80;;;16.60;99.90;;;;;;5003771;28;20583;-64
2023/08/07 09:13:45;;;;;;;7.90;3.67;;;16.60;99.90;;;;;;5004613;28;21090;-64
2023/08/07 09:16:14;;;;;;;9.17;4.00;;;16.60;99.90;;;;;;5004413;28;20479;-63
2023/08/07 09:18:43;;;;;;;7.30;3.40;;;16.70;99.90;;;;;;5004116;28;20886;-64
2023/08/07 09:21:16;;;;;;;11.00;3.57;;;16.90;99.90;;;;;;5004804;28;20587;-66
2023/08/07 09:23:44;;;;;;;8.30;3.50;;;17.10;99.90;;;;;;5007074;28;20492;-64
2023/08/07 09:26:12;;;;;;;6.83;3.10;;;17.20;99.90;;;;;;5010329;28;20492;-66
2023/08/07 09:28:40;;;;;;;10.23;3.40;;;17.30;99.90;;;;;;5009577;28;20527;-64
2023/08/07 09:31:09;;;;;;;7.20;3.63;;;17.50;99.90;;;;;;5008892;28;21024;-64
2023/08/07 09:33:39;;;;;;;6.03;3.30;;;17.60;99.90;;;;;;5006603;28;20495;-64
2023/08/07 09:36:07;;;;;;;6.53;3.00;;;17.70;99.90;;;;;;5006981;28;21046;-64
2023/08/07 09:38:37;;;;;;;8.50;2.60;;;17.70;99.90;;;;;;5007802;28;20511;-64
2023/08/07 09:41:05;;;;;;;7.03;2.97;;;17.60;99.90;;;;;;5009167;28;20495;-64
2023/08/07 09:43:36;;;;;;;7.53;3.43;;;17.60;99.90;;;;;;5008917;28;20534;-65
2023/08/07 09:46:04;;;;;;;6.17;3.20;;;17.60;99.90;;;;;;5007446;28;20744;-64
2023/08/07 09:48:34;;;;;;;6.83;2.70;;;17.60;99.90;;;;;;5008377;28;20468;-63
2023/08/07 09:51:03;;;;;;;7.40;3.20;;;17.60;99.90;;;;;;5008773;28;20491;-64
2023/08/07 09:53:32;;;;;;;5.93;3.00;;;17.70;99.90;;;;;;5007421;28;20842;-64
2023/08/07 09:56:02;;;;;;;6.20;3.30;;;17.80;99.90;;;;;;5008768;28;20568;-64
2023/08/07 09:58:30;;;;;;;7.23;2.97;;;17.90;99.90;;;;;;5012104;28;20579;-64
2023/08/07 10:01:03;;;;;;;7.40;2.97;;;18.00;99.90;;;;;;5009952;28;20495;-64
2023/08/07 10:03:33;;;;;;;4.60;3.27;;;18.10;99.90;;;;;;5019382;28;20488;-64
2023/08/07 10:06:01;;;;;;;5.27;3.10;;;18.20;99.90;;;;;;5019524;28;20500;-63
2023/08/07 10:08:30;;;;;;;5.27;2.70;;;18.20;99.90;;;;;;5018185;28;20479;-64
2023/08/07 10:11:01;;;;;;;8.73;2.83;;;18.10;99.90;;;;;;5021900;28;20495;-64
2023/08/07 10:13:30;;;;;;;5.43;2.83;;;18.00;99.90;;;;;;5020664;28;20480;-63
2023/08/07 10:16:06;;;;;;;7.80;3.13;;;18.10;99.90;;;;;;5021635;28;20472;-64
2023/08/07 10:18:36;;;;;;;7.07;3.13;;;18.10;99.90;;;;;;5022221;28;20479;-64
2023/08/07 10:21:06;;;;;;;7.90;3.03;;;18.20;99.90;;;;;;5018745;28;20491;-64
2023/08/07 10:23:36;;;;;;;6.43;2.97;;;18.20;99.90;;;;;;5016560;28;20551;-64
2023/08/07 10:26:06;;;;;;;6.20;3.13;;;18.30;99.90;;;;;;5020140;28;20511;-64
2023/08/07 10:28:40;;;;;;;8.47;3.20;;;18.30;99.90;;;;;;5020227;28;20464;-64
2023/08/07 10:31:10;;;;;;;4.47;2.57;;;18.40;99.90;;;;;;5020933;28;20516;-64
2023/08/07 10:33:38;;;;;;;7.70;2.80;;;18.40;99.90;;;;;;5020359;28;20487;-64
2023/08/07 10:36:10;;;;;;;6.47;2.70;;;18.50;99.90;;;;;;5021959;28;20471;-62
2023/08/07 10:38:38;;;;;;;6.10;3.23;;;18.50;99.90;;;;;;5021156;28;20546;-64
2023/08/07 10:41:13;;;;;;;5.93;2.90;;;18.50;99.90;;;;;;5022149;28;20492;-64
2023/08/07 10:43:43;;;;;;;5.40;3.10;;;18.50;99.90;;;;;;5008435;28;21028;-63
2023/08/07 10:46:14;;;;;;;4.00;2.87;;;18.50;99.90;;;;;;5007784;28;20518;-64
2023/08/07 10:48:43;;;;;;;5.43;2.63;;;18.60;99.90;;;;;;5015765;28;20480;-64
2023/08/07 10:51:14;;;;;;;7.00;2.87;;;18.60;99.90;;;;;;5025968;28;20488;-63
2023/08/07 10:53:44;;;;;;;6.13;2.77;;;18.60;99.90;;;;;;5012177;28;20486;-64
2023/08/07 10:56:18;;;;;;;6.30;3.13;;;18.60;99.90;;;;;;5006769;28;20557;-64
2023/08/07 10:58:51;;;;;;;5.27;3.10;;;18.60;99.90;;;;;;5005235;28;21047;-64
2023/08/07 11:01:21;;;;;;;7.40;3.23;;;18.60;99.90;;;;;;5003287;28;20506;-64
2023/08/07 11:03:51;;;;;;;4.03;2.63;;;18.50;99.90;;;;;;5007209;28;20520;-64
2023/08/07 11:06:22;;;;;;;5.33;2.50;;;18.30;99.90;;;;;;5006155;28;21579;-64
2023/08/07 11:08:50;;;;;;;5.50;2.33;;;18.20;99.90;;;;;;5005417;28;21055;-64
2023/08/07 11:11:20;;;;;;;3.70;2.00;;;18.20;99.90;;;;;;5007112;28;20531;-64
2023/08/07 11:13:48;;;;;;;4.73;2.87;;;18.40;99.90;;;;;;5005684;28;20487;-63
2023/08/07 11:16:16;;;;;;;6.50;2.30;;;18.50;99.90;;;;;;5019897;28;20499;-64
2023/08/07 11:18:44;;;;;;;7.87;2.80;;;18.60;99.90;;;;;;5017873;28;20468;-64
2023/08/07 11:21:13;;;;;;;6.80;2.50;;;18.30;99.90;;;;;;5004804;28;20584;-64
2023/08/07 11:23:43;;;;;;;7.13;2.67;;;18.20;99.90;;;;;;5006939;28;20526;-65
2023/08/07 11:26:12;;;;;;;8.50;2.40;;;18.00;99.90;;;;;;5007638;28;20496;-64
2023/08/07 11:28:41;;;;;;;7.37;2.60;;;17.90;99.90;;;;;;5006641;28;20503;-63
2023/08/07 11:31:09;;;;;;;5.73;2.30;;;17.70;99.90;;;;;;5004996;28;20523;-64
2023/08/07 11:33:38;;;;;;;6.43;2.30;;;17.70;99.90;;;;;;5003057;28;20480;-64
2023/08/07 11:36:12;;;;;;;6.80;2.77;;;17.60;99.90;;;;;;5003038;28;20584;-64
2023/08/07 11:38:42;;;;;;;3.67;2.10;;;17.80;99.90;;;;;;5005502;28;20480;-64
2023/08/07 11:41:11;;;;;;;4.60;2.40;;;18.10;99.90;;;;;;5006263;28;20492;-64
2023/08/07 11:43:42;;;;;;;6.60;2.40;;;18.30;99.90;;;;;;5005484;28;20511;-63
2023/08/07 11:46:12;;;;;;;5.80;2.50;;;18.50;99.90;;;;;;5004741;28;20473;-66
2023/08/07 11:48:41;;;;;;;7.47;2.70;;;18.50;99.90;;;;;;5004139;28;20563;-64
2023/08/07 11:51:09;;;;;;;4.57;2.23;;;18.50;99.90;;;;;;5005157;28;20972;-64
2023/08/07 11:53:40;;;;;;;4.53;2.40;;;18.40;99.90;;;;;;5004249;28;20918;-63
2023/08/07 11:56:10;;;;;;;2.73;1.90;;;18.40;99.90;;;;;;5006414;28;20508;-63
2023/08/07 11:58:42;;;;;;;2.97;1.87;;;18.30;99.90;;;;;;5005777;28;20556;-64
2023/08/07 12:01:12;;;;;;;4.77;1.70;;;18.30;99.90;;;;;;5006356;28;20849;-63
2023/08/07 12:03:51;;;;;;;5.87;2.17;;;18.40;99.90;;;;;;5005103;28;20490;-64
2023/08/07 12:06:19;;;;;;;2.40;1.50;;;18.50;99.90;;;;;;5004563;28;20483;-64
2023/08/07 12:08:50;;;;;;;8.73;2.60;;;18.50;99.90;;;;;;5004162;28;20468;-64
2023/08/07 12:11:18;;;;;;;5.93;2.63;;;18.40;99.90;;;;;;5004133;28;20484;-63
2023/08/07 12:13:48;;;;;;;4.33;2.20;;;18.10;99.90;;;;;;5004617;28;20563;-64
2023/08/07 12:16:17;;;;;;;6.37;2.37;;;17.70;99.90;;;;;;5007361;28;20487;-64
2023/08/07 12:18:46;;;;;;;4.03;2.10;;;17.50;99.90;;;;;;5003064;28;20476;-64
2023/08/07 12:21:16;;;;;;;2.90;2.10;;;17.40;99.90;;;;;;5004584;28;20594;-63
2023/08/07 12:23:47;;;;;;;4.30;2.07;;;17.30;99.90;;;;;;5001664;28;20579;-63
2023/08/07 12:26:15;;;;;;;5.70;1.97;;;17.30;99.90;;;;;;5005223;28;20625;-64
2023/08/07 12:28:44;;;;;;;4.70;1.97;;;17.40;99.90;;;;;;5004588;28;20566;-64
2023/08/07 12:31:13;;;;;;;5.23;2.07;;;17.50;99.90;;;;;;5005268;28;20571;-64
2023/08/07 12:33:41;;;;;;;5.20;2.43;;;17.50;99.90;;;;;;5005611;28;20513;-63
2023/08/07 12:36:10;;;;;;;5.67;2.23;;;17.60;99.90;;;;;;5005804;28;20940;-64
2023/08/07 12:38:41;;;;;;;5.67;2.50;;;17.60;99.90;;;;;;5004444;28;20511;-63
2023/08/07 12:41:09;;;;;;;6.47;2.50;;;17.60;99.90;;;;;;5002811;28;20491;-64
2023/08/07 12:43:59;;;;;;;6.80;2.80;;;17.60;99.90;;;;;;5002662;28;20484;-64
2023/08/07 12:46:28;;;;;;;8.23;2.47;;;17.40;99.90;;;;;;5005305;28;20881;-63
2023/08/07 12:48:59;;;;;;;5.73;2.53;;;17.30;99.90;;;;;;5003528;28;20847;-64
2023/08/07 12:51:27;;;;;;;7.47;3.10;;;17.30;99.90;;;;;;5004069;28;20573;-64
2023/08/07 12:53:55;;;;;;;10.07;3.30;;;17.50;99.90;;;;;;5003796;28;21087;-64